sensor_id;sensor_type;location;lat;lon;timestamp;pressure;altitude;pressure_sealevel;temperature;humidity
10261;BME280;5175;42.606;23.388;2023-08-06T00:00:22;92729.25;;;18.89;100.00
10261;BME280;5175;42.606;23.388;2023-08-06T00:02:49;92743.00;;;19.00;100.00
10261;BME280;5175;42.606;23.388;2023-08-06T00:05:16;92733.59;;;18.94;100.00
10261;BME280;5175;42.606;23.388;2023-08-06T00:07:43;92720.50;;;18.77;94.78
10261;BME280;5175;42.606;23.388;2023-08-06T00:10:10;92720.28;;;18.66;90.57
10261;BME280;5175;42.606;23.388;2023-08-06T00:12:37;92724.91;;;18.65;92.71
10261;BME280;5175;42.606;23.388;2023-08-06T00:15:06;92710.41;;;18.73;92.51
10261;BME280;5175;42.606;23.388;2023-08-06T00:17:33;92707.06;;;18.80;92.02
10261;BME280;5175;42.606;23.388;2023-08-06T00:20:00;92714.69;;;18.74;92.51
10261;BME280;5175;42.606;23.388;2023-08-06T00:22:30;92714.59;;;18.90;97.45
10261;BME280;5175;42.606;23.388;2023-08-06T00:24:57;92710.28;;;19.05;99.99
10261;BME280;5175;42.606;23.388;2023-08-06T00:27:24;92702.88;;;19.02;100.00
10261;BME280;5175;42.606;23.388;2023-08-06T00:29:50;92696.25;;;18.99;100.00
10261;BME280;5175;42.606;23.388;2023-08-06T00:32:19;92698.31;;;19.06;100.00
10261;BME280;5175;42.606;23.388;2023-08-06T00:34:46;92698.31;;;19.06;100.00
10261;BME280;5175;42.606;23.388;2023-08-06T00:37:15;92689.19;;;19.14;100.00
10261;BME280;5175;42.606;23.388;2023-08-06T00:39:42;92690.81;;;19.18;100.00
10261;BME280;5175;42.606;23.388;2023-08-06T00:42:08;92689.28;;;19.17;100.00
10261;BME280;5175;42.606;23.388;2023-08-06T00:44:35;92686.16;;;19.15;100.00
10261;BME280;5175;42.606;23.388;2023-08-06T00:47:02;92692.31;;;19.16;100.00
10261;BME280;5175;42.606;23.388;2023-08-06T00:49:31;92677.88;;;19.08;98.46
10261;BME280;5175;42.606;23.388;2023-08-06T00:51:58;92675.91;;;19.05;96.29
10261;BME280;5175;42.606;23.388;2023-08-06T00:54:27;92683.66;;;19.07;99.55
10261;BME280;5175;42.606;23.388;2023-08-06T00:56:54;92673.63;;;19.07;99.59
10261;BME280;5175;42.606;23.388;2023-08-06T00:59:20;92665.56;;;19.11;99.82
10261;BME280;5175;42.606;23.388;2023-08-06T01:01:47;92665.28;;;19.16;100.00
10261;BME280;5175;42.606;23.388;2023-08-06T01:04:15;92652.91;;;19.15;95.88
10261;BME280;5175;42.606;23.388;2023-08-06T01:06:47;92653.75;;;19.19;97.47
10261;BME280;5175;42.606;23.388;2023-08-06T01:09:24;92640.94;;;19.16;99.73
10261;BME280;5175;42.606;23.388;2023-08-06T01:12:00;92644.09;;;19.18;100.00
10261;BME280;5175;42.606;23.388;2023-08-06T01:14:40;92630.31;;;19.26;99.59
10261;BME280;5175;42.606;23.388;2023-08-06T01:17:12;92639.34;;;19.34;100.00
10261;BME280;5175;42.606;23.388;2023-08-06T01:19:39;92647.97;;;19.40;100.00
10261;BME280;5175;42.606;23.388;2023-08-06T01:22:07;92634.22;;;19.29;100.00
10261;BME280;5175;42.606;23.388;2023-08-06T01:24:34;92630.56;;;19.18;100.00
10261;BME280;5175;42.606;23.388;2023-08-06T01:27:04;92624.06;;;19.00;97.81
10261;BME280;5175;42.606;23.388;2023-08-06T01:29:36;92611.88;;;19.09;99.15
10261;BME280;5175;42.606;23.388;2023-08-06T01:32:08;92608.75;;;19.07;97.80
10261;BME280;5175;42.606;23.388;2023-08-06T01:34:39;92632.81;;;18.93;91.09
10261;BME280;5175;42.606;23.388;2023-08-06T01:37:08;92632.47;;;18.95;90.15
10261;BME280;5175;42.606;23.388;2023-08-06T01:39:35;92624.78;;;18.97;96.98
10261;BME280;5175;42.606;23.388;2023-08-06T01:42:02;92603.59;;;18.80;90.72
10261;BME280;5175;42.606;23.388;2023-08-06T01:44:29;92605.16;;;18.81;90.57
10261;BME280;5175;42.606;23.388;2023-08-06T01:46:56;92605.38;;;18.72;92.14
10261;BME280;5175;42.606;23.388;2023-08-06T01:49:22;92610.22;;;18.82;92.26
10261;BME280;5175;42.606;23.388;2023-08-06T01:51:49;92600.22;;;19.05;97.09
10261;BME280;5175;42.606;23.388;2023-08-06T01:54:17;92613.00;;;19.08;96.02
10261;BME280;5175;42.606;23.388;2023-08-06T01:56:44;92613.28;;;19.03;90.66
10261;BME280;5175;42.606;23.388;2023-08-06T01:59:11;92605.25;;;19.07;90.36
10261;BME280;5175;42.606;23.388;2023-08-06T02:01:37;92611.63;;;19.18;93.72
10261;BME280;5175;42.606;23.388;2023-08-06T02:04:04;92602.03;;;19.20;95.53
10261;BME280;5175;42.606;23.388;2023-08-06T02:06:31;92606.38;;;19.28;100.00
10261;BME280;5175;42.606;23.388;2023-08-06T02:08:57;92600.44;;;19.39;98.85
10261;BME280;5175;42.606;23.388;2023-08-06T02:11:25;92600.47;;;19.42;99.41
10261;BME280;5175;42.606;23.388;2023-08-06T02:13:52;92603.22;;;19.23;98.17
10261;BME280;5175;42.606;23.388;2023-08-06T02:16:19;92604.28;;;19.18;95.06
10261;BME280;5175;42.606;23.388;2023-08-06T02:18:46;92601.66;;;19.22;99.82
10261;BME280;5175;42.606;23.388;2023-08-06T02:21:13;92601.72;;;19.25;98.80
10261;BME280;5175;42.606;23.388;2023-08-06T02:23:39;92591.75;;;19.07;93.51
10261;BME280;5175;42.606;23.388;2023-08-06T02:26:06;92605.72;;;18.70;89.65
10261;BME280;5175;42.606;23.388;2023-08-06T02:28:34;92623.22;;;18.57;84.12
10261;BME280;5175;42.606;23.388;2023-08-06T02:31:01;92607.19;;;18.30;100.00
10261;BME280;5175;42.606;23.388;2023-08-06T02:33:28;92606.91;;;18.35;100.00
10261;BME280;5175;42.606;23.388;2023-08-06T02:35:59;92614.66;;;18.36;100.00
10261;BME280;5175;42.606;23.388;2023-08-06T02:38:26;92634.59;;;18.47;100.00
10261;BME280;5175;42.606;23.388;2023-08-06T02:40:53;92637.00;;;18.52;100.00
10261;BME280;5175;42.606;23.388;2023-08-06T02:43:19;92638.09;;;18.48;100.00
10261;BME280;5175;42.606;23.388;2023-08-06T02:45:47;92647.50;;;18.38;100.00
10261;BME280;5175;42.606;23.388;2023-08-06T02:48:14;92641.66;;;18.36;100.00
10261;BME280;5175;42.606;23.388;2023-08-06T02:50:43;92633.84;;;18.31;100.00
10261;BME280;5175;42.606;23.388;2023-08-06T02:53:10;92622.03;;;18.20;100.00
10261;BME280;5175;42.606;23.388;2023-08-06T02:55:37;92590.56;;;18.28;100.00
10261;BME280;5175;42.606;23.388;2023-08-06T02:58:03;92614.22;;;18.34;100.00
10261;BME280;5175;42.606;23.388;2023-08-06T03:00:30;92641.81;;;18.43;100.00
10261;BME280;5175;42.606;23.388;2023-08-06T03:02:58;92647.53;;;18.57;100.00
10261;BME280;5175;42.606;23.388;2023-08-06T03:05:25;92597.38;;;18.56;100.00
10261;BME280;5175;42.606;23.388;2023-08-06T03:07:51;92572.28;;;18.56;100.00
10261;BME280;5175;42.606;23.388;2023-08-06T03:10:18;92555.28;;;18.55;100.00
10261;BME280;5175;42.606;23.388;2023-08-06T03:12:45;92573.47;;;18.58;100.00
10261;BME280;5175;42.606;23.388;2023-08-06T03:15:12;92612.72;;;18.52;100.00
10261;BME280;5175;42.606;23.388;2023-08-06T03:17:38;92621.31;;;18.58;100.00
10261;BME280;5175;42.606;23.388;2023-08-06T03:20:07;92594.94;;;18.51;100.00
10261;BME280;5175;42.606;23.388;2023-08-06T03:22:34;92570.66;;;18.51;100.00
10261;BME280;5175;42.606;23.388;2023-08-06T03:25:01;92579.88;;;18.50;100.00
10261;BME280;5175;42.606;23.388;2023-08-06T03:27:28;92607.31;;;18.52;100.00
10261;BME280;5175;42.606;23.388;2023-08-06T03:29:54;92613.25;;;18.42;100.00
10261;BME280;5175;42.606;23.388;2023-08-06T03:32:21;92610.13;;;18.40;100.00
10261;BME280;5175;42.606;23.388;2023-08-06T03:34:48;92612.50;;;18.26;100.00
10261;BME280;5175;42.606;23.388;2023-08-06T03:37:16;92596.88;;;18.16;100.00
10261;BME280;5175;42.606;23.388;2023-08-06T03:39:42;92604.06;;;18.28;100.00
10261;BME280;5175;42.606;23.388;2023-08-06T03:42:09;92612.41;;;18.38;100.00
10261;BME280;5175;42.606;23.388;2023-08-06T03:44:36;92622.72;;;18.52;100.00
10261;BME280;5175;42.606;23.388;2023-08-06T03:47:03;92602.81;;;18.41;100.00
10261;BME280;5175;42.606;23.388;2023-08-06T03:49:30;92619.44;;;18.43;100.00
10261;BME280;5175;42.606;23.388;2023-08-06T03:51:57;92631.56;;;18.49;100.00
10261;BME280;5175;42.606;23.388;2023-08-06T03:54:25;92633.63;;;18.40;100.00
10261;BME280;5175;42.606;23.388;2023-08-06T03:56:51;92634.00;;;18.38;100.00
10261;BME280;5175;42.606;23.388;2023-08-06T03:59:18;92655.44;;;18.31;100.00
10261;BME280;5175;42.606;23.388;2023-08-06T04:01:45;92663.47;;;18.28;100.00
10261;BME280;5175;42.606;23.388;2023-08-06T04:04:11;92663.75;;;18.23;100.00
10261;BME280;5175;42.606;23.388;2023-08-06T04:06:38;92647.47;;;18.19;100.00
10261;BME280;5175;42.606;23.388;2023-08-06T04:09:05;92636.06;;;18.26;100.00
10261;BME280;5175;42.606;23.388;2023-08-06T04:11:33;92623.69;;;18.44;100.00
10261;BME280;5175;42.606;23.388;2023-08-06T04:13:59;92614.56;;;18.48;100.00
10261;BME280;5175;42.606;23.388;2023-08-06T04:16:26;92616.53;;;18.70;100.00
10261;BME280;5175;42.606;23.388;2023-08-06T04:18:54;92624.09;;;18.61;100.00
10261;BME280;5175;42.606;23.388;2023-08-06T04:21:20;92628.91;;;18.71;100.00
10261;BME280;5175;42.606;23.388;2023-08-06T04:23:47;92618.75;;;18.65;100.00
10261;BME280;5175;42.606;23.388;2023-08-06T04:26:14;92606.22;;;18.76;100.00
10261;BME280;5175;42.606;23.388;2023-08-06T04:28:42;92606.94;;;18.73;100.00
10261;BME280;5175;42.606;23.388;2023-08-06T04:31:09;92615.97;;;18.81;100.00
10261;BME280;5175;42.606;23.388;2023-08-06T04:33:35;92613.22;;;18.77;100.00
10261;BME280;5175;42.606;23.388;2023-08-06T04:36:03;92600.13;;;18.79;100.00
10261;BME280;5175;42.606;23.388;2023-08-06T04:38:29;92589.34;;;18.83;100.00
10261;BME280;5175;42.606;23.388;2023-08-06T04:40:56;92576.88;;;18.74;100.00
10261;BME280;5175;42.606;23.388;2023-08-06T04:43:23;92577.63;;;18.75;100.00
10261;BME280;5175;42.606;23.388;2023-08-06T04:45:53;92573.44;;;18.77;100.00
10261;BME280;5175;42.606;23.388;2023-08-06T04:48:20;92562.63;;;18.77;100.00
10261;BME280;5175;42.606;23.388;2023-08-06T04:50:48;92573.69;;;18.69;100.00
10261;BME280;5175;42.606;23.388;2023-08-06T04:53:15;92546.84;;;18.80;100.00
10261;BME280;5175;42.606;23.388;2023-08-06T04:55:42;92549.78;;;18.94;100.00
10261;BME280;5175;42.606;23.388;2023-08-06T04:58:09;92549.56;;;19.02;100.00
10261;BME280;5175;42.606;23.388;2023-08-06T05:00:36;92543.50;;;19.09;100.00
10261;BME280;5175;42.606;23.388;2023-08-06T05:03:05;92553.09;;;19.29;100.00
10261;BME280;5175;42.606;23.388;2023-08-06T05:05:32;92545.13;;;19.36;100.00
10261;BME280;5175;42.606;23.388;2023-08-06T05:07:58;92553.00;;;19.45;100.00
10261;BME280;5175;42.606;23.388;2023-08-06T05:10:25;92546.59;;;19.56;100.00
10261;BME280;5175;42.606;23.388;2023-08-06T05:12:52;92562.94;;;19.63;100.00
10261;BME280;5175;42.606;23.388;2023-08-06T05:15:19;92563.25;;;19.58;100.00
10261;BME280;5175;42.606;23.388;2023-08-06T05:17:46;92575.38;;;19.68;100.00
10261;BME280;5175;42.606;23.388;2023-08-06T05:20:14;92570.75;;;19.68;100.00
10261;BME280;5175;42.606;23.388;2023-08-06T05:22:41;92559.63;;;19.73;100.00
10261;BME280;5175;42.606;23.388;2023-08-06T05:25:08;92569.63;;;19.69;100.00
10261;BME280;5175;42.606;23.388;2023-08-06T05:27:34;92559.44;;;19.63;100.00
10261;BME280;5175;42.606;23.388;2023-08-06T05:30:01;92562.78;;;19.79;100.00
10261;BME280;5175;42.606;23.388;2023-08-06T05:32:28;92572.03;;;19.78;100.00
10261;BME280;5175;42.606;23.388;2023-08-06T05:34:55;92559.00;;;19.83;100.00
10261;BME280;5175;42.606;23.388;2023-08-06T05:37:23;92561.59;;;20.03;100.00
10261;BME280;5175;42.606;23.388;2023-08-06T05:39:50;92555.75;;;20.00;100.00
10261;BME280;5175;42.606;23.388;2023-08-06T05:42:16;92557.63;;;19.96;100.00
10261;BME280;5175;42.606;23.388;2023-08-06T05:44:43;92552.44;;;20.14;100.00
10261;BME280;5175;42.606;23.388;2023-08-06T05:47:10;92547.69;;;19.78;100.00
10261;BME280;5175;42.606;23.388;2023-08-06T05:49:37;92550.19;;;19.90;100.00
10261;BME280;5175;42.606;23.388;2023-08-06T05:52:04;92561.59;;;20.03;100.00
10261;BME280;5175;42.606;23.388;2023-08-06T05:54:35;92560.00;;;20.02;100.00
10261;BME280;5175;42.606;23.388;2023-08-06T05:57:02;92566.88;;;19.95;100.00
10261;BME280;5175;42.606;23.388;2023-08-06T05:59:28;92563.59;;;20.09;100.00
10261;BME280;5175;42.606;23.388;2023-08-06T06:01:55;92571.31;;;20.07;100.00
10261;BME280;5175;42.606;23.388;2023-08-06T06:04:22;92577.13;;;20.09;100.00
10261;BME280;5175;42.606;23.388;2023-08-06T06:06:48;92581.44;;;20.14;100.00
10261;BME280;5175;42.606;23.388;2023-08-06T06:09:15;92582.63;;;20.16;100.00
10261;BME280;5175;42.606;23.388;2023-08-06T06:11:43;92580.94;;;20.05;100.00
10261;BME280;5175;42.606;23.388;2023-08-06T06:14:10;92592.19;;;20.07;100.00
10261;BME280;5175;42.606;23.388;2023-08-06T06:16:37;92596.56;;;20.15;100.00
10261;BME280;5175;42.606;23.388;2023-08-06T06:19:03;92607.63;;;20.03;100.00
10261;BME280;5175;42.606;23.388;2023-08-06T06:21:30;92603.66;;;19.96;100.00
10261;BME280;5175;42.606;23.388;2023-08-06T06:23:57;92606.25;;;19.89;100.00
10261;BME280;5175;42.606;23.388;2023-08-06T06:26:23;92614.38;;;20.16;100.00
10261;BME280;5175;42.606;23.388;2023-08-06T06:28:52;92610.56;;;20.20;100.00
10261;BME280;5175;42.606;23.388;2023-08-06T06:31:18;92611.22;;;20.10;100.00
10261;BME280;5175;42.606;23.388;2023-08-06T06:33:45;92616.06;;;19.97;100.00
10261;BME280;5175;42.606;23.388;2023-08-06T06:36:12;92603.97;;;19.91;100.00
10261;BME280;5175;42.606;23.388;2023-08-06T06:38:38;92620.72;;;20.23;100.00
10261;BME280;5175;42.606;23.388;2023-08-06T06:41:05;92633.38;;;20.45;100.00
10261;BME280;5175;42.606;23.388;2023-08-06T06:43:32;92620.97;;;20.44;100.00
10261;BME280;5175;42.606;23.388;2023-08-06T06:46:01;92640.09;;;20.55;100.00
10261;BME280;5175;42.606;23.388;2023-08-06T06:48:28;92649.81;;;20.59;100.00
10261;BME280;5175;42.606;23.388;2023-08-06T06:50:55;92646.28;;;20.55;100.00
10261;BME280;5175;42.606;23.388;2023-08-06T06:53:22;92651.38;;;20.31;100.00
10261;BME280;5175;42.606;23.388;2023-08-06T06:55:52;92653.88;;;20.43;100.00
10261;BME280;5175;42.606;23.388;2023-08-06T06:58:19;92661.41;;;20.56;100.00
10261;BME280;5175;42.606;23.388;2023-08-06T07:00:46;92660.22;;;20.54;100.00
10261;BME280;5175;42.606;23.388;2023-08-06T07:03:14;92667.25;;;20.62;100.00
10261;BME280;5175;42.606;23.388;2023-08-06T07:05:42;92668.97;;;20.74;100.00
10261;BME280;5175;42.606;23.388;2023-08-06T07:08:09;92666.59;;;20.69;100.00
10261;BME280;5175;42.606;23.388;2023-08-06T07:10:36;92673.25;;;20.75;100.00
10261;BME280;5175;42.606;23.388;2023-08-06T07:13:02;92676.63;;;20.65;100.00
10261;BME280;5175;42.606;23.388;2023-08-06T07:15:29;92673.53;;;20.66;100.00
10261;BME280;5175;42.606;23.388;2023-08-06T07:17:56;92675.19;;;20.74;100.00
10261;BME280;5175;42.606;23.388;2023-08-06T07:20:24;92674.66;;;20.65;100.00
10261;BME280;5175;42.606;23.388;2023-08-06T07:22:51;92666.28;;;20.74;100.00
10261;BME280;5175;42.606;23.388;2023-08-06T07:25:18;92667.03;;;21.37;100.00
10261;BME280;5175;42.606;23.388;2023-08-06T07:27:44;92666.06;;;21.56;100.00
10261;BME280;5175;42.606;23.388;2023-08-06T07:30:11;92671.97;;;22.09;100.00
10261;BME280;5175;42.606;23.388;2023-08-06T07:32:38;92661.56;;;22.21;100.00
10261;BME280;5175;42.606;23.388;2023-08-06T07:35:05;92688.75;;;22.21;100.00
10261;BME280;5175;42.606;23.388;2023-08-06T07:37:34;92681.09;;;22.37;100.00
10261;BME280;5175;42.606;23.388;2023-08-06T07:40:01;92681.09;;;22.34;100.00
10261;BME280;5175;42.606;23.388;2023-08-06T07:42:29;92690.84;;;22.42;100.00
10261;BME280;5175;42.606;23.388;2023-08-06T07:44:59;92678.13;;;22.57;100.00
10261;BME280;5175;42.606;23.388;2023-08-06T07:47:25;92686.63;;;22.48;100.00
10261;BME280;5175;42.606;23.388;2023-08-06T07:49:52;92688.91;;;22.39;100.00
10261;BME280;5175;42.606;23.388;2023-08-06T07:52:19;92690.50;;;22.51;100.00
10261;BME280;5175;42.606;23.388;2023-08-06T07:54:47;92695.75;;;22.77;100.00
10261;BME280;5175;42.606;23.388;2023-08-06T07:57:14;92691.13;;;22.84;100.00
10261;BME280;5175;42.606;23.388;2023-08-06T07:59:41;92686.94;;;22.97;100.00
10261;BME280;5175;42.606;23.388;2023-08-06T08:02:08;92690.00;;;22.96;100.00
10261;BME280;5175;42.606;23.388;2023-08-06T08:04:34;92684.06;;;22.69;100.00
10261;BME280;5175;42.606;23.388;2023-08-06T08:07:01;92684.56;;;22.92;100.00
10261;BME280;5175;42.606;23.388;2023-08-06T08:09:28;92683.75;;;22.85;100.00
10261;BME280;5175;42.606;23.388;2023-08-06T08:11:56;92680.25;;;22.84;100.00
10261;BME280;5175;42.606;23.388;2023-08-06T08:14:24;92680.91;;;22.64;100.00
10261;BME280;5175;42.606;23.388;2023-08-06T08:16:51;92679.09;;;22.85;100.00
10261;BME280;5175;42.606;23.388;2023-08-06T08:19:17;92690.03;;;22.99;93.74
10261;BME280;5175;42.606;23.388;2023-08-06T08:21:44;92690.81;;;23.03;97.60
10261;BME280;5175;42.606;23.388;2023-08-06T08:24:11;92693.25;;;23.30;100.00
10261;BME280;5175;42.606;23.388;2023-08-06T08:26:38;92688.22;;;23.28;96.46
10261;BME280;5175;42.606;23.388;2023-08-06T08:29:06;92684.81;;;23.49;92.62
10261;BME280;5175;42.606;23.388;2023-08-06T08:31:33;92695.72;;;23.59;92.99
10261;BME280;5175;42.606;23.388;2023-08-06T08:34:04;92689.13;;;23.78;93.21
10261;BME280;5175;42.606;23.388;2023-08-06T08:36:31;92701.63;;;23.97;92.01
10261;BME280;5175;42.606;23.388;2023-08-06T08:38:58;92691.16;;;24.13;89.91
10261;BME280;5175;42.606;23.388;2023-08-06T08:41:25;92700.06;;;24.06;85.32
10261;BME280;5175;42.606;23.388;2023-08-06T08:43:52;92686.09;;;24.29;84.54
10261;BME280;5175;42.606;23.388;2023-08-06T08:46:21;92686.09;;;24.47;83.35
10261;BME280;5175;42.606;23.388;2023-08-06T08:48:48;92684.88;;;24.58;82.15
10261;BME280;5175;42.606;23.388;2023-08-06T08:51:15;92670.06;;;24.80;82.52
10261;BME280;5175;42.606;23.388;2023-08-06T08:53:44;92666.59;;;24.48;78.08
10261;BME280;5175;42.606;23.388;2023-08-06T08:56:13;92660.69;;;24.71;79.14
10261;BME280;5175;42.606;23.388;2023-08-06T08:58:40;92665.41;;;24.67;79.04
10261;BME280;5175;42.606;23.388;2023-08-06T09:01:07;92677.09;;;24.53;79.12
10261;BME280;5175;42.606;23.388;2023-08-06T09:03:36;92676.72;;;24.55;78.35
10261;BME280;5175;42.606;23.388;2023-08-06T09:06:03;92665.78;;;24.62;78.14
10261;BME280;5175;42.606;23.388;2023-08-06T09:08:36;92677.09;;;24.53;76.31
10261;BME280;5175;42.606;23.388;2023-08-06T09:11:04;92672.06;;;24.41;75.31
10261;BME280;5175;42.606;23.388;2023-08-06T09:13:31;92668.91;;;24.67;76.07
10261;BME280;5175;42.606;23.388;2023-08-06T09:15:58;92666.09;;;24.99;73.96
10261;BME280;5175;42.606;23.388;2023-08-06T09:18:25;92666.53;;;24.91;71.48
10261;BME280;5175;42.606;23.388;2023-08-06T09:20:54;92665.66;;;25.15;74.42
10261;BME280;5175;42.606;23.388;2023-08-06T09:23:27;92640.66;;;25.23;69.39
10261;BME280;5175;42.606;23.388;2023-08-06T09:25:56;92661.63;;;25.44;71.95
10261;BME280;5175;42.606;23.388;2023-08-06T09:28:23;92658.41;;;25.70;69.16
10261;BME280;5175;42.606;23.388;2023-08-06T09:30:50;92653.44;;;25.40;66.74
10261;BME280;5175;42.606;23.388;2023-08-06T09:33:22;92652.06;;;25.01;64.63
10261;BME280;5175;42.606;23.388;2023-08-06T09:35:49;92652.00;;;25.15;65.42
10261;BME280;5175;42.606;23.388;2023-08-06T09:38:17;92651.91;;;25.32;63.45
10261;BME280;5175;42.606;23.388;2023-08-06T09:40:43;92631.16;;;25.56;63.90
10261;BME280;5175;42.606;23.388;2023-08-06T09:43:11;92631.09;;;25.67;62.91
10261;BME280;5175;42.606;23.388;2023-08-06T09:45:38;92647.59;;;25.49;59.93
10261;BME280;5175;42.606;23.388;2023-08-06T09:48:06;92627.66;;;25.45;64.40
10261;BME280;5175;42.606;23.388;2023-08-06T09:50:34;92637.28;;;25.74;62.17
10261;BME280;5175;42.606;23.388;2023-08-06T09:53:03;92649.13;;;25.43;61.04
10261;BME280;5175;42.606;23.388;2023-08-06T09:55:32;92640.25;;;25.28;62.87
10261;BME280;5175;42.606;23.388;2023-08-06T09:57:59;92652.44;;;24.99;64.41
10261;BME280;5175;42.606;23.388;2023-08-06T10:00:26;92649.78;;;24.74;64.11
10261;BME280;5175;42.606;23.388;2023-08-06T10:02:55;92656.81;;;24.58;65.11
10261;BME280;5175;42.606;23.388;2023-08-06T10:05:26;92656.88;;;24.47;66.21
10261;BME280;5175;42.606;23.388;2023-08-06T10:07:53;92662.69;;;24.56;65.05
10261;BME280;5175;42.606;23.388;2023-08-06T10:10:23;92658.34;;;24.87;66.93
10261;BME280;5175;42.606;23.388;2023-08-06T10:12:52;92664.56;;;24.91;62.93
10261;BME280;5175;42.606;23.388;2023-08-06T10:15:23;92672.72;;;25.05;62.60
10261;BME280;5175;42.606;23.388;2023-08-06T10:17:56;92667.94;;;25.34;63.09
10261;BME280;5175;42.606;23.388;2023-08-06T10:20:24;92662.50;;;25.27;58.72
10261;BME280;5175;42.606;23.388;2023-08-06T10:23:00;92670.75;;;25.09;58.66
10261;BME280;5175;42.606;23.388;2023-08-06T10:25:30;92666.94;;;24.85;60.56
10261;BME280;5175;42.606;23.388;2023-08-06T10:27:59;92666.19;;;24.78;62.40
10261;BME280;5175;42.606;23.388;2023-08-06T10:30:27;92672.81;;;24.80;60.93
10261;BME280;5175;42.606;23.388;2023-08-06T10:32:56;92675.06;;;24.96;64.45
10261;BME280;5175;42.606;23.388;2023-08-06T10:35:34;92677.88;;;24.57;63.56
10261;BME280;5175;42.606;23.388;2023-08-06T10:38:07;92677.13;;;24.36;63.81
10261;BME280;5175;42.606;23.388;2023-08-06T10:40:35;92690.38;;;24.44;61.53
10261;BME280;5175;42.606;23.388;2023-08-06T10:43:04;92684.53;;;24.24;63.26
10261;BME280;5175;42.606;23.388;2023-08-06T10:45:35;92689.59;;;24.22;63.19
10261;BME280;5175;42.606;23.388;2023-08-06T10:48:02;92686.81;;;23.94;63.51
10261;BME280;5175;42.606;23.388;2023-08-06T10:50:30;92688.00;;;24.00;63.57
10261;BME280;5175;42.606;23.388;2023-08-06T10:52:58;92690.69;;;23.86;64.51
10261;BME280;5175;42.606;23.388;2023-08-06T10:55:30;92706.59;;;23.52;64.44
10261;BME280;5175;42.606;23.388;2023-08-06T10:57:57;92701.50;;;23.47;66.12
10261;BME280;5175;42.606;23.388;2023-08-06T11:00:26;92699.22;;;23.49;66.48
10261;BME280;5175;42.606;23.388;2023-08-06T11:02:53;92701.53;;;23.51;68.02
10261;BME280;5175;42.606;23.388;2023-08-06T11:05:20;92710.91;;;23.64;67.34
10261;BME280;5175;42.606;23.388;2023-08-06T11:07:47;92714.81;;;23.74;68.79
10261;BME280;5175;42.606;23.388;2023-08-06T11:10:16;92717.56;;;23.88;67.94
10261;BME280;5175;42.606;23.388;2023-08-06T11:12:43;92718.34;;;23.99;66.79
10261;BME280;5175;42.606;23.388;2023-08-06T11:15:10;92716.47;;;24.42;68.03
10261;BME280;5175;42.606;23.388;2023-08-06T11:17:40;92718.75;;;24.68;64.87
10261;BME280;5175;42.606;23.388;2023-08-06T11:20:08;92722.69;;;24.84;66.02
10261;BME280;5175;42.606;23.388;2023-08-06T11:22:36;92724.50;;;25.33;62.07
10261;BME280;5175;42.606;23.388;2023-08-06T11:25:04;92727.03;;;25.79;61.60
10261;BME280;5175;42.606;23.388;2023-08-06T11:27:30;92731.84;;;26.27;61.88
10261;BME280;5175;42.606;23.388;2023-08-06T11:29:57;92731.06;;;26.26;58.92
10261;BME280;5175;42.606;23.388;2023-08-06T11:32:24;92715.47;;;26.20;59.59
10261;BME280;5175;42.606;23.388;2023-08-06T11:34:54;92726.38;;;26.78;60.17
10261;BME280;5175;42.606;23.388;2023-08-06T11:37:21;92722.47;;;26.76;57.66
10261;BME280;5175;42.606;23.388;2023-08-06T11:39:50;92722.22;;;26.59;56.02
10261;BME280;5175;42.606;23.388;2023-08-06T11:42:17;92723.94;;;26.39;53.03
10261;BME280;5175;42.606;23.388;2023-08-06T11:44:44;92728.13;;;26.51;53.85
10261;BME280;5175;42.606;23.388;2023-08-06T11:47:13;92723.22;;;26.76;56.08
10261;BME280;5175;42.606;23.388;2023-08-06T11:49:42;92731.06;;;26.74;53.52
10261;BME280;5175;42.606;23.388;2023-08-06T11:52:14;92723.41;;;25.96;55.86
10261;BME280;5175;42.606;23.388;2023-08-06T11:54:41;92716.41;;;25.92;56.27
10261;BME280;5175;42.606;23.388;2023-08-06T11:57:09;92721.41;;;25.21;58.85
10261;BME280;5175;42.606;23.388;2023-08-06T11:59:37;92718.31;;;25.12;61.83
10261;BME280;5175;42.606;23.388;2023-08-06T12:02:05;92713.22;;;25.21;63.36
10261;BME280;5175;42.606;23.388;2023-08-06T12:05:01;92715.22;;;25.03;66.78
10261;BME280;5175;42.606;23.388;2023-08-06T12:07:31;92712.94;;;24.91;68.89
10261;BME280;5175;42.606;23.388;2023-08-06T12:09:59;92711.75;;;24.88;68.32
10261;BME280;5175;42.606;23.388;2023-08-06T12:12:25;92723.81;;;24.94;69.05
10261;BME280;5175;42.606;23.388;2023-08-06T12:14:52;92709.75;;;25.13;68.27
10261;BME280;5175;42.606;23.388;2023-08-06T12:17:19;92703.75;;;25.54;74.01
10261;BME280;5175;42.606;23.388;2023-08-06T12:19:46;92704.09;;;25.63;67.85
10261;BME280;5175;42.606;23.388;2023-08-06T12:22:13;92682.28;;;25.45;63.95
10261;BME280;5175;42.606;23.388;2023-08-06T12:24:51;92697.25;;;25.12;64.50
10261;BME280;5175;42.606;23.388;2023-08-06T12:27:18;92694.97;;;25.04;65.05
10261;BME280;5175;42.606;23.388;2023-08-06T12:29:47;92699.97;;;25.12;65.65
10261;BME280;5175;42.606;23.388;2023-08-06T12:32:15;92708.47;;;25.35;62.82
10261;BME280;5175;42.606;23.388;2023-08-06T12:34:42;92708.78;;;25.62;62.64
10261;BME280;5175;42.606;23.388;2023-08-06T12:37:09;92708.78;;;25.62;64.99
10261;BME280;5175;42.606;23.388;2023-08-06T12:39:36;92704.53;;;25.54;63.01
10261;BME280;5175;42.606;23.388;2023-08-06T12:42:05;92716.00;;;25.07;66.65
10261;BME280;5175;42.606;23.388;2023-08-06T12:44:32;92711.31;;;25.07;67.68
10261;BME280;5175;42.606;23.388;2023-08-06T12:46:59;92714.03;;;25.11;65.00
10261;BME280;5175;42.606;23.388;2023-08-06T12:49:26;92710.19;;;24.76;66.94
10261;BME280;5175;42.606;23.388;2023-08-06T12:51:54;92707.50;;;24.45;68.62
10261;BME280;5175;42.606;23.388;2023-08-06T12:54:22;92705.16;;;24.15;70.21
10261;BME280;5175;42.606;23.388;2023-08-06T12:56:49;92709.41;;;24.02;71.04